Time;durP1;ratioP1;P1;durP2;ratioP2;P2;SDS_P1;SDS_P2;PMS_P1;PMS_P2;Temp;Humidity;BMP_temperature;BMP_pressure;BME280_temperature;BME280_humidity;BME280_pressure;Samples;Min_cycle;Max_cycle;Signal;HPM_P1;HPM_P2
2021/10/12 00:01:14;;;;;;;14.25;10.65;;;;;;;10.92;100.00;93991.72;827990;71;32747;-78
2021/10/12 00:16:09;;;;;;;8.35;7.08;;;;;;;10.87;99.93;93980.02;828901;71;30288;-76
2021/10/12 00:31:16;;;;;;;8.63;6.90;;;;;;;11.06;99.21;93989.77;827197;71;32735;-80
2021/10/12 00:46:15;;;;;;;7.87;7.12;;;;;;;11.05;98.31;94001.37;828266;71;32413;-77
2021/10/12 01:01:13;;;;;;;6.22;4.97;;;;;;;11.00;97.26;94000.17;834717;71;31478;-78
2021/10/12 01:16:16;;;;;;;5.67;5.10;;;;;;;10.99;96.71;94007.83;827608;71;33142;-78
2021/10/12 01:31:20;;;;;;;5.40;4.78;;;;;;;10.99;96.16;94003.34;834266;71;31399;-78
2021/10/12 01:46:18;;;;;;;4.80;3.50;;;;;;;10.82;94.04;94004.55;835868;71;32674;-77
2021/10/12 02:01:11;;;;;;;3.30;3.00;;;;;;;10.65;92.32;93985.56;828415;71;31500;-78
2021/10/12 02:16:18;;;;;;;2.75;2.55;;;;;;;10.49;91.40;93968.11;827353;71;32707;-77
2021/10/12 02:31:16;;;;;;;3.27;3.08;;;;;;;10.37;91.13;93954.77;833098;71;33211;-76
2021/10/12 02:46:17;;;;;;;2.85;2.65;;;;;;;10.26;90.70;93955.52;833583;71;32846;-77
2021/10/12 03:16:10;;;;;;;2.60;2.50;;;;;;;10.57;91.18;93958.75;828198;71;30108;-77
2021/10/12 03:31:14;;;;;;;2.27;2.17;;;;;;;10.39;90.03;93951.31;833123;71;33177;-78
2021/10/12 03:46:14;;;;;;;7.10;5.67;;;;;;;11.11;90.46;93961.29;827431;71;32864;-73
2021/10/12 04:01:08;;;;;;;2.17;2.08;;;;;;;10.39;88.60;93964.42;828148;71;29469;-77
2021/10/12 04:16:08;;;;;;;2.20;2.10;;;;;;;10.03;89.31;93951.56;828169;71;30194;-77
2021/10/12 04:31:09;;;;;;;2.40;2.30;;;;;;;9.81;89.92;93941.86;834033;71;30729;-78
2021/10/12 04:46:17;;;;;;;2.50;2.40;;;;;;;9.69;90.62;93938.19;819062;71;31492;-79
2021/10/12 05:01:09;;;;;;;2.35;2.25;;;;;;;9.58;91.07;93938.95;827280;70;30033;-74
2021/10/12 05:16:14;;;;;;;4.05;3.75;;;;;;;9.55;91.36;93945.56;827367;71;32704;-76
2021/10/12 05:31:09;;;;;;;2.22;2.12;;;;;;;9.59;91.99;93950.45;827092;71;30425;-76
2021/10/12 05:46:08;;;;;;;3.83;3.52;;;;;;;9.66;93.27;93958.44;814130;71;30075;-77
2021/10/12 06:01:14;;;;;;;2.70;2.58;;;;;;;9.67;93.36;93967.83;827573;71;32731;-76
2021/10/12 06:16:08;;;;;;;3.25;3.05;;;;;;;9.66;94.13;93961.82;828149;71;29504;-76
2021/10/12 06:31:15;;;;;;;3.55;3.30;;;;;;;9.71;93.68;93967.48;827197;71;33696;-75
2021/10/12 06:46:10;;;;;;;3.67;3.37;;;;;;;9.66;93.03;93976.23;833828;71;30107;-76
2021/10/12 07:01:14;;;;;;;3.35;3.15;;;;;;;9.65;92.75;93984.38;833619;71;32688;-76
2021/10/12 07:16:16;;;;;;;3.72;3.52;;;;;;;9.60;92.60;93987.88;833748;71;32703;-77
2021/10/12 07:31:16;;;;;;;3.47;3.27;;;;;;;9.61;92.72;94001.20;827090;71;33123;-77
2021/10/12 07:46:09;;;;;;;5.58;4.05;;;;;;;9.70;92.40;93992.14;829040;71;29660;-76
2021/10/12 08:01:10;;;;;;;3.83;3.52;;;;;;;9.77;92.58;93992.50;823234;71;30346;-78
2021/10/12 08:16:18;;;;;;;3.33;3.12;;;;;;;9.86;92.91;93987.36;828028;71;33059;-77
2021/10/12 08:31:17;;;;;;;3.80;3.50;;;;;;;10.01;93.06;93968.12;827100;71;33178;-77
2021/10/12 08:46:13;;;;;;;3.67;3.37;;;;;;;10.08;93.02;93980.84;833874;71;32036;-76
2021/10/12 09:16:16;;;;;;;3.83;3.60;;;;;;;10.15;92.77;93964.14;827386;71;33245;-75
2021/10/12 09:31:09;;;;;;;4.60;4.22;;;;;;;10.19;93.11;93945.44;828069;71;29989;-77
2021/10/12 09:46:32;;;;;;;3.90;3.70;;;;;;;10.21;92.89;93943.83;828083;71;32001;-77
2021/10/12 10:01:16;;;;;;;7.72;4.75;;;;;;;10.22;93.05;93934.91;827115;71;32702;-75
2021/10/12 10:16:16;;;;;;;5.12;4.72;;;;;;;10.25;92.83;93934.84;827461;71;32729;-75
2021/10/12 10:31:14;;;;;;;4.47;4.15;;;;;;;10.26;92.81;93921.44;835239;71;32588;-76
2021/10/12 10:46:35;;;;;;;5.10;4.37;;;;;;;10.27;92.58;93915.11;827428;71;32627;-75
2021/10/12 11:01:08;;;;;;;4.58;4.17;;;;;;;10.17;92.53;93879.96;828128;71;29699;-77
2021/10/12 11:16:18;;;;;;;5.85;5.35;;;;;;;10.37;93.60;93885.27;833676;71;32717;-77
2021/10/12 11:31:11;;;;;;;6.17;5.22;;;;;;;10.48;93.55;93876.59;827940;71;29427;-75
2021/10/12 11:46:14;;;;;;;4.92;4.55;;;;;;;10.47;93.10;93863.27;827960;71;32303;-75
2021/10/12 12:01:11;;;;;;;5.90;5.40;;;;;;;10.45;92.70;93857.00;827889;71;30753;-77
2021/10/12 12:16:09;;;;;;;5.58;5.08;;;;;;;10.41;92.70;93849.50;827940;71;29614;-75
2021/10/12 12:31:29;;;;;;;5.25;4.80;;;;;;;10.37;92.53;93853.26;828036;71;30164;-76
2021/10/12 12:46:17;;;;;;;6.37;5.78;;;;;;;10.31;92.77;93845.29;833959;71;32747;-76
2021/10/12 13:01:15;;;;;;;6.33;5.70;;;;;;;10.32;93.07;93848.16;828869;71;30304;-76
2021/10/12 13:16:14;;;;;;;5.30;4.90;;;;;;;10.33;93.45;93858.88;833978;71;32683;-74
2021/10/12 13:31:09;;;;;;;5.58;5.08;;;;;;;10.34;93.59;93860.43;827745;71;30466;-75
2021/10/12 13:46:08;;;;;;;4.90;4.53;;;;;;;10.31;93.49;93874.13;833700;71;29719;-73
2021/10/12 14:01:08;;;;;;;5.92;4.60;;;;;;;10.28;93.28;93869.47;828148;71;30148;-76
2021/10/12 14:16:09;;;;;;;5.58;5.03;;;;;;;10.28;93.66;93864.23;827973;71;28279;-76
2021/10/12 14:31:08;;;;;;;5.33;4.70;;;;;;;10.27;93.78;93859.28;833908;71;29975;-77
2021/10/12 14:46:09;;;;;;;5.97;5.47;;;;;;;10.28;93.93;93867.37;828128;71;30268;-76
2021/10/12 15:16:08;;;;;;;4.80;4.50;;;;;;;10.28;94.55;93875.23;828051;71;30143;-77
2021/10/12 15:31:17;;;;;;;5.92;5.42;;;;;;;10.25;94.33;93875.30;832556;71;32806;-77
2021/10/12 15:46:14;;;;;;;7.83;7.12;;;;;;;10.18;94.41;93881.53;819083;71;32786;-75
2021/10/12 16:01:15;;;;;;;9.70;8.70;;;;;;;10.12;94.32;93891.90;813793;71;33275;-77
2021/10/12 16:16:18;;;;;;;10.90;8.85;;;;;;;10.06;94.09;93909.59;827330;71;33169;-75
2021/10/12 16:31:09;;;;;;;9.15;8.25;;;;;;;9.95;93.57;93929.23;828078;71;29804;-78
2021/10/12 16:46:10;;;;;;;8.80;8.00;;;;;;;9.86;93.18;93931.02;828660;71;29318;-79
2021/10/12 17:01:09;;;;;;;8.55;7.75;;;;;;;9.78;92.94;93948.22;828469;71;30117;-79
2021/10/12 17:16:08;;;;;;;9.33;8.00;;;;;;;9.69;92.72;93957.32;835176;71;29704;-77
2021/10/12 17:31:08;;;;;;;8.98;8.08;;;;;;;9.60;92.46;93969.01;828074;71;30227;-79
2021/10/12 17:46:10;;;;;;;12.63;9.53;;;;;;;9.47;91.93;93980.30;833663;71;30196;-79
2021/10/12 18:01:09;;;;;;;12.05;9.83;;;;;;;9.37;91.63;94003.52;827951;71;29777;-77
2021/10/12 18:16:09;;;;;;;12.07;9.95;;;;;;;9.29;91.40;94015.22;828102;71;30169;-78
2021/10/12 18:31:10;;;;;;;11.68;9.93;;;;;;;9.27;91.72;94019.97;827727;71;30309;-78
2021/10/12 18:46:25;;;;;;;12.03;10.23;;;;;;;9.26;91.25;94017.09;827058;71;32746;-79
2021/10/12 19:01:18;;;;;;;12.70;10.80;;;;;;;9.26;91.17;94015.24;833244;71;32782;-77
2021/10/12 19:16:12;;;;;;;15.32;11.55;;;;;;;9.29;90.95;94012.06;827821;71;28565;-78
2021/10/12 19:31:09;;;;;;;14.40;11.15;;;;;;;9.30;90.32;94001.81;828381;71;29996;-78
2021/10/12 19:46:08;;;;;;;12.47;10.25;;;;;;;9.34;90.26;93988.37;827969;71;29679;-78
2021/10/12 20:01:10;;;;;;;15.80;11.05;;;;;;;9.34;89.37;93991.54;827756;71;30327;-76
2021/10/12 20:16:10;;;;;;;13.53;10.93;;;;;;;9.29;89.18;94010.75;829679;71;30291;-79
2021/10/12 20:31:08;;;;;;;19.12;14.53;;;;;;;9.23;88.93;94017.91;827855;71;30186;-79
2021/10/12 20:46:13;;;;;;;22.22;15.88;;;;;;;9.08;88.31;94014.80;828199;71;32087;-80
2021/10/12 21:16:18;;;;;;;20.68;15.53;;;;;;;8.97;87.95;94020.22;833514;71;32767;-79
2021/10/12 21:31:16;;;;;;;22.07;14.58;;;;;;;9.00;87.50;94028.02;827114;71;32751;-77
2021/10/12 21:46:08;;;;;;;15.65;12.75;;;;;;;9.00;86.71;94046.33;827942;71;29944;-77
2021/10/12 22:01:09;;;;;;;17.50;12.75;;;;;;;9.05;86.28;94050.72;834230;71;29728;-76
2021/10/12 22:16:18;;;;;;;12.95;11.15;;;;;;;9.06;85.87;94052.25;834104;71;32739;-78
2021/10/12 22:31:14;;;;;;;13.70;11.30;;;;;;;9.03;85.44;94045.23;827129;71;33233;-75
2021/10/12 22:46:15;;;;;;;13.88;11.38;;;;;;;9.04;85.12;94036.84;827168;71;32736;-79
2021/10/12 23:01:10;;;;;;;13.80;10.48;;;;;;;9.00;84.80;94026.70;827798;71;31187;-76
2021/10/12 23:16:10;;;;;;;13.53;10.50;;;;;;;8.98;84.91;94021.78;833616;71;30230;-77
2021/10/12 23:31:08;;;;;;;12.93;10.50;;;;;;;8.96;85.12;94019.19;833789;71;30175;-77
2021/10/12 23:46:09;;;;;;;13.72;10.32;;;;;;;8.95;84.74;94022.88;827745;71;30307;-76
